Time;durP1;ratioP1;P1;durP2;ratioP2;P2;SDS_P1;SDS_P2;PMS_P1;PMS_P2;Temp;Humidity;BMP_temperature;BMP_pressure;BME280_temperature;BME280_humidity;BME280_pressure;Samples;Min_cycle;Max_cycle;Signal;HPM_P1;HPM_P2
2022/08/10 00:06:27;;;;;;;6.83;3.72;;;;;;;13.38;81.58;99975.20;4327628;81;21041;-83
2022/08/10 00:12:29;;;;;;;11.55;4.80;;;;;;;13.49;82.17;99980.84;4324749;81;21074;-84
2022/08/10 00:18:30;;;;;;;7.67;5.20;;;;;;;13.39;81.91;99978.15;4319539;81;21044;-83
2022/08/10 00:24:36;;;;;;;9.00;4.90;;;;;;;13.28;81.90;99976.41;4319801;81;21029;-83
2022/08/10 00:30:38;;;;;;;8.73;4.87;;;;;;;13.16;82.21;99968.34;4325963;81;22025;-83
2022/08/10 00:36:39;;;;;;;5.10;4.17;;;;;;;13.05;82.46;99962.69;4324271;81;21045;-84
2022/08/10 00:42:43;;;;;;;7.90;4.58;;;;;;;12.90;82.71;99970.45;4327963;81;21061;-83
2022/08/10 00:48:54;;;;;;;9.30;4.42;;;;;;;12.73;83.42;99966.02;4340791;81;21013;-83
2022/08/10 00:54:57;;;;;;;7.22;4.78;;;;;;;12.66;83.43;99968.06;4328751;81;20973;-84
2022/08/10 01:01:11;;;;;;;6.15;3.70;;;;;;;12.67;84.05;99964.73;4318510;81;21071;-83
2022/08/10 01:07:54;;;;;;;11.28;4.55;;;;;;;12.72;84.64;99963.07;4307696;81;21063;-83
2022/08/10 01:14:28;;;;;;;6.78;4.53;;;;;;;12.60;84.27;99966.77;4298458;81;21041;-83
2022/08/10 01:20:59;;;;;;;9.83;5.17;;;;;;;12.48;84.69;99972.45;4290035;81;21075;-83
2022/08/10 01:27:33;;;;;;;11.08;5.72;;;;;;;12.40;84.89;99971.48;4194516;81;21610;-83
2022/08/10 01:33:44;;;;;;;13.48;5.58;;;;;;;12.35;85.15;99965.52;4327966;81;20972;-83
2022/08/10 01:39:50;;;;;;;10.88;5.50;;;;;;;12.29;85.42;99966.37;4302633;81;21015;-83
2022/08/10 01:46:03;;;;;;;10.25;4.75;;;;;;;12.23;85.52;99965.08;4316817;81;20999;-83
2022/08/10 01:52:09;;;;;;;14.00;5.80;;;;;;;12.17;85.79;99964.36;4286183;81;21024;-83
2022/08/10 01:58:11;;;;;;;10.20;5.67;;;;;;;12.13;86.07;99959.39;4302772;81;21910;-83
2022/08/10 02:04:23;;;;;;;13.10;5.20;;;;;;;12.12;86.29;99961.92;4323472;80;21498;-83
2022/08/10 02:10:57;;;;;;;11.88;5.00;;;;;;;12.06;86.34;99957.29;4351403;80;21054;-83
2022/08/10 02:17:04;;;;;;;13.83;5.20;;;;;;;11.97;86.98;99967.70;4326988;80;20979;-83
2022/08/10 02:23:10;;;;;;;9.80;4.40;;;;;;;12.03;87.11;99959.95;4316704;80;21031;-82
2022/08/10 02:29:15;;;;;;;8.35;4.65;;;;;;;11.89;86.96;99961.84;4261251;80;20988;-83
2022/08/10 02:35:17;;;;;;;8.58;4.35;;;;;;;11.84;87.35;99962.71;4318442;80;21039;-83
2022/08/10 02:41:30;;;;;;;11.22;5.15;;;;;;;11.76;87.39;99965.08;4243285;81;21039;-83
2022/08/10 02:47:58;;;;;;;12.73;5.85;;;;;;;11.66;87.64;99974.66;4265468;81;21335;-83
2022/08/10 02:54:07;;;;;;;13.93;5.35;;;;;;;11.61;87.77;99967.25;4229508;83;20948;-83
2022/08/10 03:00:24;;;;;;;10.70;5.25;;;;;;;11.57;87.86;99978.73;4319011;80;21001;-83
2022/08/10 03:06:31;;;;;;;10.25;4.92;;;;;;;11.47;87.99;99989.67;4310797;80;21025;-83
2022/08/10 03:12:35;;;;;;;7.45;5.28;;;;;;;11.42;88.18;99991.31;4322641;80;21068;-83
2022/08/10 03:18:41;;;;;;;9.20;5.28;;;;;;;11.37;88.33;99994.31;4295936;80;22314;-83
2022/08/10 03:25:01;;;;;;;12.25;5.65;;;;;;;11.35;88.67;99993.09;4313507;80;21024;-83
2022/08/10 03:31:03;;;;;;;9.80;4.42;;;;;;;11.34;88.75;100003.25;4318959;80;21031;-83
2022/08/10 03:37:05;;;;;;;8.18;4.90;;;;;;;11.28;88.87;100006.05;4345059;80;21016;-83
2022/08/10 03:43:09;;;;;;;11.12;5.62;;;;;;;11.26;89.27;100014.42;4318078;80;20976;-83
2022/08/10 03:49:24;;;;;;;8.58;5.75;;;;;;;11.19;89.43;100021.08;4314723;80;21035;-83
2022/08/10 03:55:26;;;;;;;10.03;4.97;;;;;;;11.20;89.62;100018.58;4322990;80;21079;-82
2022/08/10 04:01:35;;;;;;;9.80;4.95;;;;;;;11.19;90.03;100008.75;4329725;80;21110;-83
2022/08/10 04:07:37;;;;;;;8.70;4.70;;;;;;;11.25;90.64;100013.61;4319010;80;21082;-82
2022/08/10 04:13:38;;;;;;;7.67;3.85;;;;;;;11.35;90.77;100014.45;4316495;80;21648;-85
2022/08/10 04:19:45;;;;;;;11.10;5.67;;;;;;;11.60;91.29;100021.32;4310410;80;21487;-84
2022/08/10 04:25:49;;;;;;;;;;;;;;;11.83;91.06;100027.75;4331110;80;21006;-85
2022/08/10 04:32:02;;;;;;;7.80;5.75;;;;;;;12.01;91.35;100039.12;4310554;80;20171;-85
2022/08/10 04:38:05;;;;;;;8.95;6.30;;;;;;;12.16;90.81;100038.26;4301099;80;21567;-85
2022/08/10 04:44:06;;;;;;;13.13;7.55;;;;;;;12.31;90.72;100041.51;4321949;80;22058;-85
2022/08/10 04:50:09;;;;;;;13.93;7.67;;;;;;;12.45;90.64;100046.72;4308492;80;20971;-84
2022/08/10 04:56:10;;;;;;;11.97;6.53;;;;;;;12.57;90.58;100052.05;4319583;80;21015;-85
2022/08/10 05:02:11;;;;;;;8.40;6.25;;;;;;;12.67;90.46;100052.05;4301403;80;21038;-84
2022/08/10 05:08:29;;;;;;;12.13;6.42;;;;;;;12.79;90.46;100049.73;4340872;80;21044;-84
2022/08/10 05:14:36;;;;;;;9.98;6.35;;;;;;;12.88;90.40;100056.58;4269693;81;21063;-84
2022/08/10 05:20:38;;;;;;;11.88;6.10;;;;;;;13.01;90.34;100050.37;4240213;81;21071;-85
2022/08/10 05:26:41;;;;;;;8.50;5.50;;;;;;;13.13;90.28;100057.86;4320856;80;21024;-84
2022/08/10 05:32:54;;;;;;;9.15;5.97;;;;;;;13.30;90.27;100052.44;4306225;80;21054;-85
2022/08/10 05:39:13;;;;;;;9.10;6.42;;;;;;;13.44;90.36;100043.05;4264844;80;21054;-84
2022/08/10 05:45:28;;;;;;;10.68;5.85;;;;;;;13.62;90.59;100045.52;4320547;80;21066;-85
2022/08/10 05:51:29;;;;;;;8.55;5.20;;;;;;;13.84;90.58;100047.42;4321667;80;21940;-85
2022/08/10 05:57:30;;;;;;;10.55;6.05;;;;;;;14.09;90.69;100052.09;4327044;80;21026;-85
2022/08/10 06:03:47;;;;;;;12.45;7.08;;;;;;;14.31;90.69;100052.42;4279239;80;21026;-85
2022/08/10 06:10:12;;;;;;;10.67;6.33;;;;;;;14.60;90.49;100048.83;4289120;82;21032;-85
2022/08/10 06:16:15;;;;;;;13.15;7.95;;;;;;;14.91;90.37;100052.55;4252624;82;20991;-85
2022/08/10 06:22:32;;;;;;;10.45;7.37;;;;;;;15.21;90.04;100051.26;4322604;82;20988;-85
2022/08/10 06:29:07;;;;;;;13.13;8.23;;;;;;;15.60;89.77;100051.03;4289118;82;21003;-85
2022/08/10 06:35:29;;;;;;;12.82;8.50;;;;;;;16.04;88.91;100045.98;4159862;82;27796;-84
2022/08/10 06:41:58;;;;;;;10.03;6.00;;;;;;;16.43;88.27;100046.39;4172636;84;21092;-84
2022/08/10 06:48:28;;;;;;;12.20;6.67;;;;;;;16.79;87.72;100050.09;4148757;85;20999;-84
2022/08/10 06:54:40;;;;;;;9.68;6.33;;;;;;;17.06;87.32;100041.08;4143316;85;21008;-83
2022/08/10 07:00:44;;;;;;;9.28;5.33;;;;;;;17.36;87.04;100043.48;4168249;84;21000;-84
2022/08/10 07:06:49;;;;;;;12.45;5.58;;;;;;;17.69;86.74;100047.84;4198256;83;21626;-83
2022/08/10 07:12:56;;;;;;;9.85;4.42;;;;;;;18.01;86.25;100043.83;4168404;84;20971;-83
2022/08/10 07:19:12;;;;;;;;;;;;;;;18.26;85.64;100039.01;4134425;85;21057;-84
2022/08/10 07:31:44;;;;;;;8.73;4.92;;;;;;;18.91;84.01;100037.55;4198579;84;21013;-85
2022/08/10 07:38:12;;;;;;;10.25;4.95;;;;;;;19.16;82.12;100034.81;4239957;84;21634;-84
2022/08/10 07:50:41;;;;;;;;;;;;;;;19.88;81.02;100037.41;4201128;84;21010;-83
2022/08/10 08:04:05;;;;;;;9.53;4.30;;;;;;;20.78;78.51;100039.53;4029654;84;22155;-84
2022/08/10 08:10:10;;;;;;;7.92;3.60;;;;;;;21.36;74.80;100035.55;4126715;84;21113;-84
2022/08/10 08:16:14;;;;;;;6.33;3.67;;;;;;;21.85;75.30;100038.89;4143986;84;21585;-85
2022/08/10 08:22:17;;;;;;;6.62;3.77;;;;;;;22.12;73.55;100032.61;4164150;84;21117;-84
2022/08/10 08:28:21;;;;;;;5.65;3.42;;;;;;;22.25;72.50;100018.23;4164008;84;21037;-84
2022/08/10 08:34:43;;;;;;;7.58;3.55;;;;;;;22.45;71.66;100024.58;4129682;84;21515;-84
2022/08/10 08:41:00;;;;;;;7.30;3.60;;;;;;;22.64;70.81;100020.23;4113918;84;21576;-84
2022/08/10 08:47:14;;;;;;;10.20;3.22;;;;;;;22.74;69.83;100010.84;4131855;84;21049;-84
2022/08/10 08:53:33;;;;;;;8.18;3.62;;;;;;;22.87;69.44;100006.95;4162224;84;21046;-85
2022/08/10 09:00:19;;;;;;;4.90;2.80;;;;;;;23.08;63.14;99994.50;4171663;84;21057;-86
2022/08/10 09:06:55;;;;;;;5.37;3.10;;;;;;;23.02;66.60;99992.05;4186663;83;20988;-85
2022/08/10 09:13:28;;;;;;;6.80;2.87;;;;;;;23.38;66.07;99992.80;4200877;83;21021;-85
2022/08/10 09:19:57;;;;;;;6.22;2.83;;;;;;;23.75;64.19;99991.44;4057861;84;21071;-84
2022/08/10 09:26:04;;;;;;;3.85;2.17;;;;;;;24.20;63.23;99978.22;4183395;84;22072;-85
2022/08/10 09:32:12;;;;;;;4.58;2.40;;;;;;;24.72;61.56;99986.30;4107752;85;21074;-86
2022/08/10 09:38:28;;;;;;;3.65;1.82;;;;;;;24.97;60.84;99984.30;4087763;86;21007;-85
2022/08/10 09:44:57;;;;;;;2.63;1.73;;;;;;;24.82;59.75;99960.00;4115375;85;21638;-86
2022/08/10 09:51:10;;;;;;;1.77;1.50;;;;;;;24.68;58.10;99972.43;4063679;87;21046;-86
2022/08/10 09:57:34;;;;;;;5.00;2.05;;;;;;;25.25;57.70;99969.38;4015437;87;21056;-87
2022/08/10 10:04:16;;;;;;;5.42;1.80;;;;;;;25.38;56.45;99969.39;4109538;85;21713;-85
2022/08/10 10:10:23;;;;;;;6.28;2.00;;;;;;;26.02;55.75;99959.73;4090937;86;21162;-85
2022/08/10 10:23:10;;;;;;;4.03;1.40;;;;;;;26.10;54.24;99947.63;4172982;83;21031;-86
2022/08/10 10:29:38;;;;;;;3.42;1.60;;;;;;;25.34;53.07;99947.72;4185169;83;21061;-87
2022/08/10 10:35:56;;;;;;;3.30;1.40;;;;;;;25.48;53.02;99939.59;4171308;83;21024;-86
2022/08/10 10:42:56;;;;;;;2.65;1.55;;;;;;;26.53;52.11;99937.73;4182659;84;21051;-87
2022/08/10 10:49:14;;;;;;;4.30;1.80;;;;;;;27.26;50.67;99929.81;4189763;84;21031;-87
2022/08/10 11:03:11;;;;;;;3.58;1.52;;;;;;;27.51;49.35;99928.14;4182346;83;21067;-87
2022/08/10 11:09:40;;;;;;;3.77;1.40;;;;;;;26.12;47.86;99931.13;4219739;83;21136;-86
2022/08/10 11:16:17;;;;;;;1.77;1.45;;;;;;;26.02;47.81;99923.26;4201692;83;21982;-87
2022/08/10 11:22:53;;;;;;;2.40;1.30;;;;;;;27.11;47.88;99915.39;4050931;83;21070;-86
2022/08/10 11:29:09;;;;;;;3.90;1.53;;;;;;;27.23;47.13;99913.85;4180340;83;21584;-87
2022/08/10 11:35:19;;;;;;;;;;;;;;;27.72;46.66;99908.77;4216385;83;21103;-87
2022/08/10 11:41:36;;;;;;;3.92;1.57;;;;;;;28.05;45.65;99909.70;4133012;86;20121;-86
2022/08/10 11:47:56;;;;;;;2.22;1.30;;;;;;;27.33;45.84;99904.81;4211435;83;21510;-86
2022/08/10 11:54:31;;;;;;;2.42;1.10;;;;;;;27.41;45.78;99895.63;4097333;83;9999582;-87
2022/08/10 12:00:35;;;;;;;2.77;1.20;;;;;;;27.59;44.82;99889.98;4192592;83;22000;-86
2022/08/10 12:06:49;;;;;;;4.05;1.20;;;;;;;27.31;44.12;99890.47;4150934;84;21944;-85
2022/08/10 12:13:23;;;;;;;2.33;1.32;;;;;;;26.98;43.22;99873.98;4137409;84;21099;-85
2022/08/10 12:19:45;;;;;;;2.15;1.17;;;;;;;26.75;43.67;99866.88;4134854;84;21090;-85
2022/08/10 12:26:19;;;;;;;5.70;1.15;;;;;;;26.66;43.70;99875.89;4130501;85;21059;-86
2022/08/10 12:32:32;;;;;;;3.33;1.30;;;;;;;26.35;43.33;99869.49;4103868;85;21123;-86
2022/08/10 12:39:00;;;;;;;1.65;1.20;;;;;;;26.24;43.11;99864.30;4088947;85;21081;-87
2022/08/10 12:45:25;;;;;;;3.25;1.25;;;;;;;26.11;42.71;99862.19;4103362;85;21020;-85
2022/08/10 12:51:29;;;;;;;2.75;1.32;;;;;;;25.72;42.40;99861.44;4111428;84;21091;-86
2022/08/10 12:57:35;;;;;;;4.33;1.30;;;;;;;25.04;43.52;99849.64;4096474;85;21070;-85
2022/08/10 13:03:38;;;;;;;;;;;;;;;24.68;44.00;99845.81;4103988;85;21070;-85
2022/08/10 13:09:39;;;;;;;2.35;1.42;;;;;;;24.72;45.20;99834.50;4102461;85;20175;-86
2022/08/10 13:15:47;;;;;;;1.80;1.30;;;;;;;24.75;44.92;99830.80;4083048;85;21003;-85
2022/08/10 13:21:51;;;;;;;3.50;1.50;;;;;;;24.73;44.12;99812.90;4115684;85;22031;-85
2022/08/10 13:28:02;;;;;;;2.95;1.50;;;;;;;24.84;43.94;99797.92;4111667;85;21019;-86
2022/08/10 13:34:20;;;;;;;2.42;1.20;;;;;;;25.06;44.02;99819.77;4064265;85;21055;-87
2022/08/10 13:40:24;;;;;;;3.33;1.50;;;;;;;25.00;44.34;99813.95;4093221;85;21064;-85
2022/08/10 13:46:39;;;;;;;2.67;1.55;;;;;;;24.72;44.26;99800.91;4116662;84;20971;-85
2022/08/10 13:52:42;;;;;;;2.83;1.17;;;;;;;24.45;44.83;99797.16;4109756;85;21035;-84
2022/08/10 13:58:49;;;;;;;2.22;1.17;;;;;;;24.28;44.78;99794.32;4101899;85;21095;-85
2022/08/10 14:04:57;;;;;;;4.75;1.42;;;;;;;24.49;44.75;99792.22;4121307;83;21055;-85
2022/08/10 14:11:24;;;;;;;13.62;6.70;;;;;;;24.59;44.67;99784.10;4164595;84;21063;-86
2022/08/10 14:17:26;;;;;;;5.10;3.37;;;;;;;24.56;44.98;99785.61;4161026;84;21108;-86
2022/08/10 14:23:27;;;;;;;5.42;1.82;;;;;;;24.27;45.04;99779.38;4162484;84;20979;-85
2022/08/10 14:29:32;;;;;;;3.83;1.70;;;;;;;23.94;45.08;99784.38;4170992;84;21123;-84
2022/08/10 14:35:39;;;;;;;6.95;1.57;;;;;;;23.75;45.96;99774.17;4173747;84;21576;-85
2022/08/10 14:41:41;;;;;;;2.90;1.40;;;;;;;23.64;46.90;99772.31;4158438;84;21659;-86
2022/08/10 14:47:43;;;;;;;2.12;1.42;;;;;;;23.76;45.98;99763.15;4151040;83;21055;-86
2022/08/10 14:53:52;;;;;;;3.30;1.50;;;;;;;23.98;46.26;99766.11;4045422;84;10000004;-86
2022/08/10 14:59:56;;;;;;;1.92;1.30;;;;;;;24.16;45.50;99767.14;4177556;84;21141;-86
2022/08/10 15:06:02;;;;;;;3.17;1.40;;;;;;;24.27;44.43;99754.20;4175272;82;21143;-86
2022/08/10 15:12:04;;;;;;;1.85;1.40;;;;;;;24.29;45.12;99755.31;4174384;83;21081;-84
2022/08/10 15:18:07;;;;;;;3.72;1.92;;;;;;;24.33;45.16;99746.20;4212550;83;21506;-86
2022/08/10 15:24:58;;;;;;;4.30;1.50;;;;;;;24.37;45.11;99753.84;4212818;83;21054;-85
2022/08/10 15:30:19;;;;;;;2.70;1.10;;;;;;;24.22;45.01;99751.97;4220216;83;21472;-86
2022/08/10 15:42:53;;;;;;;3.98;2.27;;;;;;;23.69;45.61;99742.41;4208630;83;20995;-86
2022/08/10 15:49:00;;;;;;;8.25;3.30;;;;;;;23.36;45.73;99746.59;4215908;83;21619;-85
2022/08/10 15:55:07;;;;;;;;;;;;;;;23.16;46.09;99745.30;4197583;83;21155;-85
2022/08/10 16:01:36;;;;;;;5.05;2.20;;;;;;;23.04;46.61;99747.45;4206808;83;20126;-85
2022/08/10 16:07:49;;;;;;;3.83;1.50;;;;;;;22.99;46.83;99753.56;4191154;83;21065;-86
2022/08/10 16:13:51;;;;;;;1.92;1.25;;;;;;;22.97;46.07;99742.05;4177833;84;21529;-85
2022/08/10 16:19:56;;;;;;;1.95;1.22;;;;;;;22.96;46.58;99748.86;4183065;83;21976;-85
2022/08/10 16:26:07;;;;;;;3.05;1.10;;;;;;;22.97;46.68;99745.47;4066004;84;9999950;-86
2022/08/10 16:32:11;;;;;;;1.75;1.00;;;;;;;22.97;46.26;99747.63;4171350;84;21041;-86
2022/08/10 16:38:15;;;;;;;1.52;1.00;;;;;;;23.06;45.57;99748.41;4176293;83;21015;-86
2022/08/10 16:44:21;;;;;;;2.22;1.10;;;;;;;23.07;45.54;99751.36;4175899;83;21974;-85
2022/08/10 16:50:35;;;;;;;3.50;1.10;;;;;;;23.04;45.12;99754.43;4185858;84;21031;-85
2022/08/10 16:56:37;;;;;;;1.98;1.10;;;;;;;23.07;44.67;99761.12;4179374;83;21088;-85
2022/08/10 17:02:42;;;;;;;2.70;1.22;;;;;;;23.04;44.27;99755.83;4184140;83;22004;-86
2022/08/10 17:08:47;;;;;;;5.62;1.67;;;;;;;22.98;44.24;99762.38;4196390;83;22033;-86
2022/08/10 17:14:51;;;;;;;1.00;0.93;;;;;;;22.87;44.46;99759.88;4194974;84;21068;-86
2022/08/10 17:21:00;;;;;;;3.35;1.20;;;;;;;22.77;44.50;99767.14;4194270;84;21565;-85
2022/08/10 17:27:06;;;;;;;2.05;1.30;;;;;;;22.68;44.85;99771.94;4172856;83;20992;-85
2022/08/10 17:33:14;;;;;;;2.93;1.10;;;;;;;22.58;45.05;99768.80;4196497;84;22003;-84
2022/08/10 17:39:20;;;;;;;1.77;1.10;;;;;;;22.44;45.22;99766.33;4201633;83;21123;-88
2022/08/10 17:45:25;;;;;;;1.85;1.10;;;;;;;22.30;45.35;99775.67;4191712;84;21481;-86
2022/08/10 17:51:27;;;;;;;1.67;1.30;;;;;;;22.11;45.60;99762.58;4189839;84;21074;-85
2022/08/10 17:57:36;;;;;;;4.10;1.27;;;;;;;21.93;45.86;99769.16;4195063;84;21019;-85
2022/08/10 18:03:41;;;;;;;4.30;1.62;;;;;;;21.77;46.27;99769.90;4195258;83;20983;-85
2022/08/10 18:09:52;;;;;;;3.30;1.52;;;;;;;21.53;46.89;99771.97;4193678;83;21006;-85
2022/08/10 18:15:56;;;;;;;2.05;1.20;;;;;;;21.35;47.87;99782.70;4194125;83;21085;-85
2022/08/10 18:21:57;;;;;;;3.37;1.85;;;;;;;21.17;48.08;99783.63;4181377;83;21068;-86
2022/08/10 18:28:01;;;;;;;2.25;1.30;;;;;;;20.97;48.44;99795.98;4191798;83;21599;-85
2022/08/10 18:34:06;;;;;;;3.40;1.60;;;;;;;20.67;48.82;99801.64;4200264;82;21097;-84
2022/08/10 18:40:09;;;;;;;2.25;1.52;;;;;;;20.38;49.36;99801.31;4196601;83;21007;-85
2022/08/10 18:46:18;;;;;;;2.42;1.62;;;;;;;20.07;49.89;99798.38;4192316;84;21445;-85
2022/08/10 18:52:23;;;;;;;4.92;2.08;;;;;;;19.75;50.58;99809.13;4189572;83;21003;-85
2022/08/10 18:58:49;;;;;;;3.95;1.85;;;;;;;19.47;51.28;99810.87;4195358;84;21712;-85
2022/08/10 19:05:34;;;;;;;2.95;1.62;;;;;;;19.23;52.03;99821.64;4189980;83;21518;-85
2022/08/10 19:12:15;;;;;;;6.75;2.30;;;;;;;19.00;52.75;99820.07;4199433;83;21561;-85
2022/08/10 19:18:51;;;;;;;9.23;3.05;;;;;;;18.73;53.65;99832.41;4213081;83;21642;-84
2022/08/10 19:25:08;;;;;;;7.30;3.87;;;;;;;18.50;54.53;99834.97;4191831;83;21508;-85
2022/08/10 19:31:13;;;;;;;;;;;;;;;18.22;55.30;99834.55;4197619;83;21076;-85
2022/08/10 19:38:01;;;;;;;8.35;3.90;;;;;;;17.98;56.89;99837.48;4205692;83;20151;-85
2022/08/10 19:44:26;;;;;;;;;;;;;;;17.76;56.74;99831.23;4213285;83;21689;-86
2022/08/10 19:50:33;;;;;;;5.60;3.75;;;;;;;17.58;58.64;99838.04;4188295;83;20181;-85
2022/08/10 19:56:59;;;;;;;15.23;3.47;;;;;;;17.40;58.19;99834.52;4196588;82;21040;-85
2022/08/10 20:03:18;;;;;;;6.47;2.60;;;;;;;17.24;58.83;99838.50;4164212;83;21070;-85
2022/08/10 20:09:33;;;;;;;5.20;3.10;;;;;;;17.07;60.06;99832.41;4222683;82;21081;-85
2022/08/10 20:15:49;;;;;;;8.93;3.98;;;;;;;16.87;60.67;99833.23;4239695;83;21615;-85
2022/08/10 20:22:01;;;;;;;7.95;4.42;;;;;;;16.64;61.51;99842.53;4237773;83;21019;-86
2022/08/10 20:28:14;;;;;;;11.00;5.70;;;;;;;16.47;62.22;99840.55;4139003;84;21050;-85
2022/08/10 20:34:44;;;;;;;11.18;5.42;;;;;;;16.36;62.88;99834.19;4160003;84;21068;-85
2022/08/10 20:41:09;;;;;;;11.73;5.83;;;;;;;16.23;63.04;99824.69;4159467;84;21134;-85
2022/08/10 20:47:28;;;;;;;16.17;8.38;;;;;;;16.14;63.60;99831.98;4161721;84;21599;-85
2022/08/10 20:53:34;;;;;;;14.23;7.42;;;;;;;16.05;64.80;99830.78;4160281;84;21445;-84
2022/08/10 21:00:09;;;;;;;9.73;5.75;;;;;;;15.99;65.88;99831.73;4172283;84;22014;-85
2022/08/10 21:06:45;;;;;;;8.73;4.95;;;;;;;15.98;66.10;99837.07;4158329;84;22077;-85
2022/08/10 21:13:24;;;;;;;15.03;5.40;;;;;;;15.94;66.03;99833.52;4141072;84;21025;-85
2022/08/10 21:19:51;;;;;;;11.28;4.83;;;;;;;15.88;67.06;99831.53;4155525;84;21057;-85
2022/08/10 23:03:38;;;;;;;6.35;4.35;;;;;;;15.25;74.82;99795.55;4203046;83;22267;-84
2022/08/10 23:09:42;;;;;;;7.28;4.47;;;;;;;15.11;75.30;99800.22;4226342;83;21090;-84
2022/08/10 23:22:31;;;;;;;8.18;4.87;;;;;;;15.10;75.90;99798.61;4250008;83;21583;-84
2022/08/10 23:28:37;;;;;;;11.43;4.78;;;;;;;14.90;76.13;99798.70;4240085;83;21592;-84
2022/08/10 23:34:43;;;;;;;8.60;5.00;;;;;;;14.78;76.62;99805.33;4260060;83;21008;-84
2022/08/10 23:40:49;;;;;;;17.23;5.20;;;;;;;14.60;77.08;99797.51;4246468;83;21620;-84
2022/08/10 23:46:51;;;;;;;7.15;4.40;;;;;;;14.50;77.23;99798.81;4249679;83;21054;-84
2022/08/10 23:53:00;;;;;;;6.17;4.35;;;;;;;14.43;77.85;99788.52;4249203;83;21630;-84
2022/08/10 23:59:02;;;;;;;8.95;5.20;;;;;;;14.29;78.04;99784.84;4261957;83;21040;-84
